Time;durP1;ratioP1;P1;durP2;ratioP2;P2;SDS_P1;SDS_P2;PMS_P1;PMS_P2;Temp;Humidity;BMP_temperature;BMP_pressure;BME280_temperature;BME280_humidity;BME280_pressure;Samples;Min_cycle;Max_cycle;Signal;HPM_P1;HPM_P2
2022/09/07 00:02:04;;;;;;;;;;;;;;;8.26;66.22;99857.70;1617386;86;22090;-67
2022/09/07 00:04:30;;;;;;;;;;;;;;;8.27;66.17;99856.73;1616467;86;20132;-67
2022/09/07 00:06:57;;;;;;;;;;;;;;;8.26;66.09;99858.54;1616289;86;20092;-68
2022/09/07 00:09:25;;;;;;;;;;;;;;;8.24;65.99;99854.37;1618043;86;20173;-66
2022/09/07 00:11:51;;;;;;;;;;;;;;;8.17;65.96;99850.13;1617904;86;20112;-66
2022/09/07 00:14:19;;;;;;;;;;;;;;;8.10;66.11;99850.38;1623026;87;21238;-66
2022/09/07 00:16:45;;;;;;;;;;;;;;;8.06;66.31;99856.44;1620226;86;20474;-66
2022/09/07 00:19:12;;;;;;;;;;;;;;;8.05;66.46;99848.66;1616671;86;20132;-66
2022/09/07 00:21:38;;;;;;;;;;;;;;;8.06;66.48;99846.33;1616104;86;20107;-66
2022/09/07 00:24:05;;;;;;;;;;;;;;;8.07;66.57;99848.00;1616390;86;20438;-66
2022/09/07 00:26:32;;;;;;;;;;;;;;;8.10;66.63;99841.09;1617849;86;21156;-67
2022/09/07 00:28:59;;;;;;;;;;;;;;;8.14;66.63;99842.45;1625879;86;20158;-67
2022/09/07 00:31:25;;;;;;;;;;;;;;;8.17;66.58;99834.70;1616012;86;20099;-67
2022/09/07 00:33:52;;;;;;;;;;;;;;;8.18;66.56;99836.39;1616949;86;20092;-67
2022/09/07 00:36:19;;;;;;;;;;;;;;;8.20;66.53;99838.39;1620056;86;20267;-67
2022/09/07 00:38:46;;;;;;;;;;;;;;;8.22;66.52;99837.75;1619005;86;20595;-67
2022/09/07 00:41:13;;;;;;;;;;;;;;;8.24;66.43;99838.46;1617316;86;20099;-67
2022/09/07 00:43:43;;;;;;;;;;;;;;;8.26;66.37;99839.98;1615322;86;20458;-66
2022/09/07 00:46:12;;;;;;;;;;;;;;;8.27;66.32;99839.02;1620623;86;20133;-66
2022/09/07 00:48:51;;;;;;;;;;;;;;;8.29;66.36;99836.23;1614604;86;20104;-66
2022/09/07 00:51:21;;;;;;;;;;;;;;;8.32;66.44;99837.24;1615886;86;21177;-67
2022/09/07 00:53:53;;;;;;;;;;;;;;;8.36;66.34;99834.66;1617416;86;20112;-67
2022/09/07 00:56:20;;;;;;;;;;;;;;;8.38;66.31;99832.69;1617362;86;20434;-67
2022/09/07 00:58:46;;;;;;;;;;;;;;;8.40;66.31;99838.18;1626840;86;20439;-67
2022/09/07 01:01:13;;;;;;;;;;;;;;;8.45;66.35;99835.92;1616945;87;20128;-67
2022/09/07 01:03:42;;;;;;;;;;;;;;;8.49;66.29;99834.66;1617978;86;21150;-67
2022/09/07 01:06:12;;;;;;;;;;;;;;;8.53;66.30;99836.02;1618822;86;20170;-67
2022/09/07 01:08:40;;;;;;;;;;;;;;;8.56;66.19;99818.97;1616827;86;20124;-68
2022/09/07 01:11:07;;;;;;;;;;;;;;;8.60;66.06;99823.82;1617769;86;20206;-68
2022/09/07 01:13:34;;;;;;;;;;;;;;;8.59;65.97;99825.31;1618212;86;20508;-68
2022/09/07 01:16:26;;;;;;;;;;;;;;;8.57;65.88;99825.47;1621510;86;21176;-68
2022/09/07 01:19:05;;;;;;;;;;;;;;;8.54;65.87;99827.09;1614149;87;20514;-68
2022/09/07 01:21:57;;;;;;;;;;;;;;;8.51;66.01;99820.75;1616625;87;20180;-67
2022/09/07 01:24:33;;;;;;;;;;;;;;;8.51;66.09;99819.91;1620380;86;20276;-67
2022/09/07 01:27:20;;;;;;;;;;;;;;;8.52;66.15;99819.78;1618360;86;20092;-67
2022/09/07 01:30:05;;;;;;;;;;;;;;;8.53;66.20;99824.08;1615529;86;21257;-67
2022/09/07 01:32:35;;;;;;;;;;;;;;;8.59;66.08;99813.38;1615589;86;20121;-67
2022/09/07 01:35:04;;;;;;;;;;;;;;;8.64;66.00;99818.58;1618992;86;20111;-68
2022/09/07 01:37:34;;;;;;;;;;;;;;;8.72;65.83;99806.38;1614101;86;20115;-68
2022/09/07 01:40:07;;;;;;;;;;;;;;;8.80;65.63;99811.77;1619377;86;20136;-68
2022/09/07 01:42:42;;;;;;;;;;;;;;;8.87;65.36;99811.00;1616623;86;20096;-68
2022/09/07 01:45:11;;;;;;;;;;;;;;;8.94;65.16;99811.25;1617042;86;20234;-68
2022/09/07 01:47:43;;;;;;;;;;;;;;;8.97;64.95;99809.63;1616947;86;20285;-67
2022/09/07 01:50:14;;;;;;;;;;;;;;;9.02;64.74;99807.34;1619060;86;20211;-67
2022/09/07 01:52:53;;;;;;;;;;;;;;;9.05;64.59;99807.85;1616252;86;20438;-68
2022/09/07 01:55:29;;;;;;;;;;;;;;;9.07;64.44;99799.23;1620201;86;22035;-67
2022/09/07 01:58:00;;;;;;;;;;;;;;;9.09;64.24;99797.29;1616113;86;20634;-67
2022/09/07 02:00:26;;;;;;;;;;;;;;;9.11;64.12;99794.47;1616174;86;20180;-67
2022/09/07 02:03:06;;;;;;;;;;;;;;;9.11;63.96;99788.67;1616387;86;20174;-67
2022/09/07 02:05:35;;;;;;;;;;;;;;;9.12;63.84;99789.03;1598547;86;20152;-67
2022/09/07 02:08:11;;;;;;;;;;;;;;;9.11;63.74;99790.48;1615798;86;21182;-67
2022/09/07 02:10:41;;;;;;;;;;;;;;;9.07;63.69;99786.48;1619311;86;20448;-67
2022/09/07 02:13:14;;;;;;;;;;;;;;;9.02;63.70;99781.61;1616203;86;20109;-67
2022/09/07 02:15:46;;;;;;;;;;;;;;;9.00;63.69;99784.08;1619062;86;20434;-67
2022/09/07 02:18:15;;;;;;;;;;;;;;;8.98;63.65;99775.45;1620960;86;20475;-67
2022/09/07 02:20:43;;;;;;;;;;;;;;;8.95;63.60;99775.75;1617701;86;21182;-67
2022/09/07 02:23:18;;;;;;;;;;;;;;;8.92;63.67;99768.09;1614566;86;20144;-67
2022/09/07 02:25:51;;;;;;;;;;;;;;;8.87;63.71;99767.72;1617760;86;20163;-68
2022/09/07 02:28:19;;;;;;;;;;;;;;;8.82;63.79;99773.97;1618652;86;20230;-68
2022/09/07 02:30:45;;;;;;;;;;;;;;;8.76;63.84;99763.47;1615829;86;20148;-68
2022/09/07 02:33:11;;;;;;;;;;;;;;;8.73;63.83;99766.94;1618353;86;21177;-68
2022/09/07 02:35:38;;;;;;;;;;;;;;;8.72;63.87;99763.94;1619995;86;20129;-68
2022/09/07 02:38:05;;;;;;;;;;;;;;;8.70;63.78;99760.13;1619586;86;20185;-68
2022/09/07 02:40:33;;;;;;;;;;;;;;;8.72;63.70;99761.28;1615711;86;20124;-68
2022/09/07 02:43:01;;;;;;;;;;;;;;;8.71;63.56;99763.09;1617671;86;20199;-68
2022/09/07 02:45:34;;;;;;;;;;;;;;;8.72;63.42;99757.30;1621136;86;21825;-68
2022/09/07 02:48:16;;;;;;;;;;;;;;;8.72;63.27;99765.27;1618024;86;20120;-66
2022/09/07 02:50:56;;;;;;;;;;;;;;;8.72;63.11;99763.94;1610189;86;20184;-67
2022/09/07 02:53:29;;;;;;;;;;;;;;;8.70;62.96;99761.45;1616226;86;20467;-67
2022/09/07 02:56:05;;;;;;;;;;;;;;;8.68;62.87;99764.23;1618976;86;20117;-68
2022/09/07 02:58:46;;;;;;;;;;;;;;;8.71;62.77;99763.61;1617529;86;21174;-68
2022/09/07 03:01:25;;;;;;;;;;;;;;;8.72;62.70;99759.95;1611886;86;20133;-67
2022/09/07 03:03:55;;;;;;;;;;;;;;;8.71;62.65;99757.79;1617993;86;20431;-68
2022/09/07 03:06:27;;;;;;;;;;;;;;;8.72;62.55;99758.63;1613176;86;20100;-68
2022/09/07 03:08:54;;;;;;;;;;;;;;;8.69;62.52;99756.63;1615982;86;20430;-67
2022/09/07 03:11:21;;;;;;;;;;;;;;;8.67;62.52;99753.79;1616229;86;21169;-66
2022/09/07 03:13:47;;;;;;;;;;;;;;;8.65;62.52;99753.95;1617695;86;20203;-66
2022/09/07 03:16:14;;;;;;;;;;;;;;;8.64;62.53;99752.27;1617428;86;20195;-67
2022/09/07 03:18:42;;;;;;;;;;;;;;;8.64;62.46;99757.58;1630549;86;20143;-66
2022/09/07 03:21:09;;;;;;;;;;;;;;;8.66;62.34;99756.09;1636380;86;20175;-67
2022/09/07 03:23:36;;;;;;;;;;;;;;;8.69;62.20;99753.98;1636437;86;21129;-67
2022/09/07 03:26:03;;;;;;;;;;;;;;;8.72;61.98;99755.98;1637383;86;20548;-69
2022/09/07 03:28:30;;;;;;;;;;;;;;;8.73;61.78;99753.19;1638544;86;20148;-67
2022/09/07 03:30:56;;;;;;;;;;;;;;;8.72;61.65;99745.37;1635962;86;20181;-67
2022/09/07 03:33:22;;;;;;;;;;;;;;;8.72;61.55;99749.34;1637409;86;20137;-66
2022/09/07 03:35:59;;;;;;;;;;;;;;;8.67;61.44;99745.34;1639560;86;21181;-66
2022/09/07 03:38:25;;;;;;;;;;;;;;;8.68;61.41;99742.20;1638828;86;20107;-67
2022/09/07 03:41:02;;;;;;;;;;;;;;;8.67;61.31;99744.50;1637769;86;20229;-67
2022/09/07 03:43:28;;;;;;;;;;;;;;;8.66;61.22;99741.02;1639164;86;20205;-66
2022/09/07 03:45:59;;;;;;;;;;;;;;;8.64;61.18;99736.36;1635996;86;20445;-66
2022/09/07 03:48:28;;;;;;;;;;;;;;;8.64;61.14;99739.02;1636634;86;21183;-68
2022/09/07 03:50:57;;;;;;;;;;;;;;;8.65;61.01;99742.02;1637105;86;20119;-68
2022/09/07 03:53:23;;;;;;;;;;;;;;;8.70;60.76;99736.25;1638397;86;20092;-68
2022/09/07 03:56:00;;;;;;;;;;;;;;;8.75;60.57;99737.95;1635736;86;20835;-68
2022/09/07 03:58:30;;;;;;;;;;;;;;;8.81;60.40;99737.35;1637575;86;20145;-68
2022/09/07 04:00:58;;;;;;;;;;;;;;;8.90;60.18;99735.58;1636140;86;22074;-67
2022/09/07 04:03:24;;;;;;;;;;;;;;;8.99;59.97;99730.69;1637427;86;20535;-68
2022/09/07 04:05:51;;;;;;;;;;;;;;;9.08;59.67;99729.27;1638276;86;20114;-68
2022/09/07 04:08:17;;;;;;;;;;;;;;;9.16;59.29;99729.32;1639129;86;20169;-67
2022/09/07 04:10:44;;;;;;;;;;;;;;;9.28;58.95;99729.91;1637944;86;20119;-68
2022/09/07 04:13:10;;;;;;;;;;;;;;;9.60;58.69;99725.27;1638191;86;21140;-68
2022/09/07 04:15:37;;;;;;;;;;;;;;;10.06;57.90;99727.48;1638215;86;20508;-68
2022/09/07 04:18:03;;;;;;;;;;;;;;;10.36;56.72;99724.77;1628720;86;20223;-68
2022/09/07 04:20:30;;;;;;;;;;;;;;;10.49;55.98;99725.95;1617374;86;20152;-68
2022/09/07 04:22:56;;;;;;;;;;;;;;;10.58;55.27;99725.97;1618549;86;20140;-68
2022/09/07 04:25:22;;;;;;;;;;;;;;;10.72;54.91;99724.81;1616458;86;21186;-68
2022/09/07 04:27:49;;;;;;;;;;;;;;;11.23;54.24;99726.31;1616899;86;20148;-68
2022/09/07 04:30:15;;;;;;;;;;;;;;;11.85;52.82;99725.19;1615732;87;20544;-68
2022/09/07 04:32:44;;;;;;;;;;;;;;;12.22;51.31;99726.20;1618432;86;20150;-68
2022/09/07 04:35:11;;;;;;;;;;;;;;;12.42;50.52;99728.41;1588144;87;20166;-68
2022/09/07 04:37:38;;;;;;;;;;;;;;;12.77;49.54;99726.02;1616271;86;21133;-68
2022/09/07 04:40:04;;;;;;;;;;;;;;;12.86;48.73;99718.75;1619494;86;20649;-67
2022/09/07 04:42:31;;;;;;;;;;;;;;;13.07;48.46;99716.27;1620916;86;20241;-68
2022/09/07 04:44:57;;;;;;;;;;;;;;;13.25;47.99;99717.27;1619755;86;20154;-68
2022/09/07 04:47:25;;;;;;;;;;;;;;;13.22;47.88;99710.45;1619082;86;20152;-66
2022/09/07 04:49:52;;;;;;;;;;;;;;;13.32;47.50;99712.35;1617006;86;21238;-66
2022/09/07 04:52:19;;;;;;;;;;;;;;;13.49;47.25;99711.19;1616590;86;20132;-66
2022/09/07 04:54:48;;;;;;;;;;;;;;;13.61;46.83;99712.38;1617757;86;20128;-66
2022/09/07 04:57:15;;;;;;;;;;;;;;;13.76;46.56;99710.23;1614081;86;20121;-66
2022/09/07 04:59:41;;;;;;;;;;;;;;;13.82;46.06;99709.50;1620941;86;20147;-65
2022/09/07 05:02:08;;;;;;;;;;;;;;;13.75;46.20;99713.41;1616920;86;22140;-65
2022/09/07 05:04:35;;;;;;;;;;;;;;;13.63;46.27;99714.89;1617006;86;20155;-65
2022/09/07 05:07:03;;;;;;;;;;;;;;;13.50;46.59;99712.83;1616115;86;20133;-63
2022/09/07 05:09:29;;;;;;;;;;;;;;;13.80;46.75;99714.19;1618566;86;20096;-64
2022/09/07 05:11:56;;;;;;;;;;;;;;;14.01;46.57;99708.41;1614452;86;20426;-64
2022/09/07 05:14:22;;;;;;;;;;;;;;;14.73;46.13;99703.89;1616402;87;21199;-65
2022/09/07 05:16:50;;;;;;;;;;;;;;;15.41;44.86;99707.23;1613626;86;20112;-64
2022/09/07 05:19:16;;;;;;;;;;;;;;;16.13;43.36;99702.83;1615688;86;20177;-65
2022/09/07 05:21:43;;;;;;;;;;;;;;;16.98;41.68;99700.88;1611259;87;20200;-64
2022/09/07 05:24:09;;;;;;;;;;;;;;;17.77;39.93;99693.59;1611666;87;20112;-65
2022/09/07 05:26:38;;;;;;;;;;;;;;;18.65;39.25;99690.63;1612598;87;21202;-65
2022/09/07 05:29:04;;;;;;;;;;;;;;;19.60;37.11;99687.59;1611563;87;20144;-64
2022/09/07 05:31:31;;;;;;;;;;;;;;;20.40;35.72;99684.27;1612868;87;20104;-64
2022/09/07 05:33:58;;;;;;;;;;;;;;;21.13;34.19;99684.85;1609871;87;20245;-67
2022/09/07 05:36:25;;;;;;;;;;;;;;;21.81;32.72;99674.25;1612362;87;20123;-65
2022/09/07 05:38:53;;;;;;;;;;;;;;;22.23;31.66;99678.42;1609691;87;21185;-66
2022/09/07 05:41:21;;;;;;;;;;;;;;;22.93;31.40;99670.80;1609575;87;20132;-67
2022/09/07 05:43:48;;;;;;;;;;;;;;;23.78;30.22;99665.87;1610663;87;20148;-68
2022/09/07 05:46:15;;;;;;;;;;;;;;;24.70;29.44;99668.61;1611986;87;20207;-67
2022/09/07 05:48:43;;;;;;;;;;;;;;;25.46;27.59;99665.21;1609709;87;20180;-69
2022/09/07 05:51:09;;;;;;;;;;;;;;;25.75;26.47;99656.41;1608998;87;21218;-69
2022/09/07 05:53:37;;;;;;;;;;;;;;;26.10;26.75;99657.63;1611226;87;20132;-69
2022/09/07 05:56:03;;;;;;;;;;;;;;;26.78;25.64;99660.59;1611894;87;20227;-69
2022/09/07 05:58:31;;;;;;;;;;;;;;;27.07;24.83;99662.23;1610457;87;20202;-67
2022/09/07 06:03:41;;;;;;;;;;;;;;;27.98;23.98;99653.34;1688483;83;21719;-68
2022/09/07 06:06:10;;;;;;;;;;;;;;;28.48;23.60;99661.88;1690731;84;20139;-68
2022/09/07 06:08:41;;;;;;;;;;;;;;;28.96;23.17;99649.27;1694499;83;20488;-68
2022/09/07 06:11:10;;;;;;;;;;;;;;;29.36;21.77;99655.77;1691178;83;20195;-68
2022/09/07 06:13:38;;;;;;;;;;;;;;;29.69;21.32;99659.56;1691313;83;20130;-68
2022/09/07 06:16:06;;;;;;;;;;;;;;;29.58;20.77;99656.66;1696860;83;21157;-69
2022/09/07 06:18:36;;;;;;;;;;;;;;;29.90;20.45;99659.63;1691143;83;20131;-68
2022/09/07 06:21:11;;;;;;;;;;;;;;;30.30;19.87;99660.47;1694135;83;20130;-68
2022/09/07 06:23:38;;;;;;;;;;;;;;;30.48;19.19;99666.56;1686763;83;20127;-67
2022/09/07 06:26:05;;;;;;;;;;;;;;;30.21;19.32;99660.06;1692716;83;20167;-68
2022/09/07 06:28:33;;;;;;;;;;;;;;;29.70;19.39;99671.59;1690252;83;21157;-70
2022/09/07 06:31:15;;;;;;;;;;;;;;;29.63;19.66;99671.68;1692007;83;20270;-68
2022/09/07 06:33:40;;;;;;;;;;;;;;;29.24;19.75;99668.50;1658786;84;20451;-70
2022/09/07 06:36:10;;;;;;;;;;;;;;;28.79;19.96;99667.45;1659358;84;20197;-68
2022/09/07 06:38:37;;;;;;;;;;;;;;;28.75;20.17;99662.30;1659189;84;20106;-68
2022/09/07 06:41:23;;;;;;;;;;;;;;;28.90;19.92;99677.23;1660237;86;20452;-68
2022/09/07 06:47:31;;;;;;;;;;;;;;;28.09;20.18;99671.38;1657924;84;20098;-68
2022/09/07 06:49:58;;;;;;;;;;;;;;;28.42;20.33;99672.03;1678280;84;20112;-69
2022/09/07 06:52:25;;;;;;;;;;;;;;;29.10;19.87;99668.86;1680765;84;20103;-70
2022/09/07 06:54:51;;;;;;;;;;;;;;;30.23;18.93;99666.88;1676614;84;22168;-70
2022/09/07 06:57:18;;;;;;;;;;;;;;;30.72;18.27;99657.43;1679361;84;20127;-68
2022/09/07 06:59:44;;;;;;;;;;;;;;;31.09;18.15;99668.41;1679400;84;20123;-70
2022/09/07 07:02:11;;;;;;;;;;;;;;;31.46;18.14;99668.34;1679163;85;20635;-68
2022/09/07 07:04:37;;;;;;;;;;;;;;;32.47;17.49;99666.86;1674775;84;20269;-68
2022/09/07 07:07:04;;;;;;;;;;;;;;;32.98;16.40;99670.66;1675174;84;21756;-69
2022/09/07 07:09:30;;;;;;;;;;;;;;;33.44;16.34;99673.91;1678570;84;20135;-72
2022/09/07 07:11:57;;;;;;;;;;;;;;;34.31;15.63;99673.18;1680999;84;20107;-69
2022/09/07 07:14:24;;;;;;;;;;;;;;;34.05;15.31;99671.12;1676436;84;20128;-70
2022/09/07 07:16:51;;;;;;;;;;;;;;;33.85;15.16;99672.27;1683199;84;20124;-71
2022/09/07 07:19:17;;;;;;;;;;;;;;;33.66;15.19;99674.48;1677801;85;21081;-68
2022/09/07 07:21:44;;;;;;;;;;;;;;;33.69;15.16;99673.25;1679616;84;20167;-69
2022/09/07 07:24:10;;;;;;;;;;;;;;;33.26;15.11;99680.45;1680840;84;20215;-69
2022/09/07 07:26:37;;;;;;;;;;;;;;;32.40;15.57;99671.42;1680323;84;20388;-69
2022/09/07 07:29:04;;;;;;;;;;;;;;;31.48;16.28;99673.53;1678012;84;20159;-69
2022/09/07 07:31:32;;;;;;;;;;;;;;;30.96;16.80;99682.91;1662873;84;22148;-70
2022/09/07 07:33:59;;;;;;;;;;;;;;;30.34;16.86;99678.00;1652951;86;20216;-68
2022/09/07 07:36:25;;;;;;;;;;;;;;;29.74;17.52;99684.18;1653187;86;20094;-67
2022/09/07 07:38:53;;;;;;;;;;;;;;;29.32;18.27;99687.61;1650909;86;20307;-68
2022/09/07 07:41:21;;;;;;;;;;;;;;;28.99;18.26;99679.62;1654279;86;20123;-67
2022/09/07 07:43:55;;;;;;;;;;;;;;;28.58;18.62;99682.34;1648677;86;21175;-69
2022/09/07 07:46:21;;;;;;;;;;;;;;;28.39;19.11;99680.01;1651675;86;20102;-68
2022/09/07 07:48:47;;;;;;;;;;;;;;;28.93;19.01;99675.85;1646991;86;20465;-70
2022/09/07 07:51:14;;;;;;;;;;;;;;;29.55;18.68;99673.68;1652736;86;20473;-70
2022/09/07 07:53:40;;;;;;;;;;;;;;;29.89;18.78;99669.77;1647559;86;20094;-68
2022/09/07 07:56:08;;;;;;;;;;;;;;;30.64;17.11;99669.08;1654335;86;21117;-69
2022/09/07 07:58:34;;;;;;;;;;;;;;;30.69;16.57;99666.28;1646119;86;20516;-69
2022/09/07 08:01:06;;;;;;;;;;;;;;;30.83;16.60;99662.48;1652729;86;20468;-68
2022/09/07 08:03:34;;;;;;;;;;;;;;;31.42;16.17;99663.70;1643080;86;20770;-69
2022/09/07 08:06:07;;;;;;;;;;;;;;;31.72;15.60;99662.62;1637304;87;20101;-68
2022/09/07 08:08:34;;;;;;;;;;;;;;;32.02;15.55;99666.72;1691710;83;21151;-70
2022/09/07 08:11:03;;;;;;;;;;;;;;;32.33;15.52;99662.75;1693226;83;20128;-69
2022/09/07 08:13:32;;;;;;;;;;;;;;;32.57;14.56;99655.09;1691113;83;20150;-69
2022/09/07 08:15:58;;;;;;;;;;;;;;;33.10;14.46;99653.84;1693243;83;20539;-69
2022/09/07 08:18:24;;;;;;;;;;;;;;;33.70;14.29;99653.39;1692652;84;20118;-69
2022/09/07 08:20:51;;;;;;;;;;;;;;;33.75;13.67;99660.14;1690806;83;21121;-69
2022/09/07 08:23:19;;;;;;;;;;;;;;;33.11;14.00;99648.59;1693259;83;20134;-70
2022/09/07 08:25:49;;;;;;;;;;;;;;;33.16;14.16;99644.33;1690703;84;20186;-69
2022/09/07 08:28:16;;;;;;;;;;;;;;;34.26;13.69;99642.97;1692243;83;20131;-70
2022/09/07 08:30:42;;;;;;;;;;;;;;;34.77;13.08;99635.30;1687926;83;20151;-69
2022/09/07 08:33:09;;;;;;;;;;;;;;;34.64;12.71;99643.44;1693303;83;21266;-68
2022/09/07 08:35:41;;;;;;;;;;;;;;;34.36;12.99;99627.47;1692652;83;20490;-72
2022/09/07 08:38:07;;;;;;;;;;;;;;;34.89;13.15;99629.35;1692888;83;20190;-67
2022/09/07 08:40:35;;;;;;;;;;;;;;;35.80;12.47;99617.34;1692454;83;20182;-69
2022/09/07 08:43:21;;;;;;;;;;;;;;;35.98;12.70;99622.20;1691129;83;20147;-70
2022/09/07 08:45:50;;;;;;;;;;;;;;;36.70;11.80;99621.10;1692864;83;21842;-68
2022/09/07 08:48:19;;;;;;;;;;;;;;;36.51;11.77;99616.86;1692336;83;20198;-68
2022/09/07 08:51:01;;;;;;;;;;;;;;;36.24;12.09;99615.17;1692622;83;21101;-69
2022/09/07 08:53:28;;;;;;;;;;;;;;;36.01;12.27;99616.03;1691554;83;20482;-68
2022/09/07 08:55:56;;;;;;;;;;;;;;;36.05;12.42;99605.92;1692661;83;20214;-70
2022/09/07 08:58:47;;;;;;;;;;;;;;;37.04;11.87;99606.95;1691500;83;21268;-68
2022/09/07 09:01:15;;;;;;;;;;;;;;;37.64;11.69;99599.34;1690808;83;20202;-70
2022/09/07 09:03:41;;;;;;;;;;;;;;;38.52;11.16;99593.82;1690145;83;20485;-69
2022/09/07 09:06:23;;;;;;;;;;;;;;;38.64;10.65;99590.98;1691367;83;20465;-69
2022/09/07 09:08:53;;;;;;;;;;;;;;;38.99;10.19;99601.52;1694906;83;20448;-71
2022/09/07 09:11:27;;;;;;;;;;;;;;;38.70;10.22;99593.75;1689475;83;21119;-70
2022/09/07 09:14:05;;;;;;;;;;;;;;;38.54;10.40;99588.71;1690115;83;20154;-69
2022/09/07 09:16:43;;;;;;;;;;;;;;;38.53;10.67;99583.52;1692023;83;20135;-69
2022/09/07 09:19:22;;;;;;;;;;;;;;;38.75;10.35;99584.38;1693635;83;20179;-69
2022/09/07 09:21:53;;;;;;;;;;;;;;;39.14;10.21;99565.97;1692869;83;35882;-70
2022/09/07 09:24:19;;;;;;;;;;;;;;;39.49;10.09;99569.70;1692194;83;21107;-69
2022/09/07 09:26:49;;;;;;;;;;;;;;;39.27;10.01;99581.44;1689598;83;20172;-69
2022/09/07 09:29:20;;;;;;;;;;;;;;;38.04;10.55;99575.88;1692856;83;20126;-69
2022/09/07 09:31:46;;;;;;;;;;;;;;;37.09;11.17;99588.70;1692358;82;20126;-68
2022/09/07 09:34:14;;;;;;;;;;;;;;;36.07;11.70;99571.78;1688012;83;20142;-69
2022/09/07 09:36:44;;;;;;;;;;;;;;;36.06;12.23;99568.77;1692125;83;21765;-73
2022/09/07 09:39:35;;;;;;;;;;;;;;;36.94;11.72;99565.23;1694273;83;20098;-72
2022/09/07 09:42:16;;;;;;;;;;;;;;;37.38;11.30;99571.89;1691926;83;20473;-71
2022/09/07 09:44:42;;;;;;;;;;;;;;;36.95;11.38;99555.74;1694445;83;20483;-69
2022/09/07 09:47:27;;;;;;;;;;;;;;;37.12;11.42;99550.59;1693099;83;20448;-71
2022/09/07 09:49:56;;;;;;;;;;;;;;;37.79;11.18;99554.80;1692946;83;21219;-70
2022/09/07 09:52:23;;;;;;;;;;;;;;;38.06;10.93;99538.83;1691076;83;20130;-69
2022/09/07 09:54:52;;;;;;;;;;;;;;;38.30;10.86;99540.98;1692048;84;20119;-66
2022/09/07 09:57:40;;;;;;;;;;;;;;;38.69;10.53;99535.75;1695116;83;20108;-70
2022/09/07 10:00:11;;;;;;;;;;;;;;;38.97;10.59;99535.15;1684781;83;20157;-69
2022/09/07 10:02:40;;;;;;;;;;;;;;;38.49;10.92;99551.45;1671401;84;21942;-71
2022/09/07 10:05:22;;;;;;;;;;;;;;;37.01;11.52;99548.02;1691569;83;20147;-68
2022/09/07 10:07:51;;;;;;;;;;;;;;;36.83;11.65;99539.05;1689922;83;20253;-68
2022/09/07 10:10:18;;;;;;;;;;;;;;;37.27;11.57;99535.23;1693904;83;20242;-68
2022/09/07 10:12:44;;;;;;;;;;;;;;;37.71;11.32;99536.54;1694730;83;20165;-68
2022/09/07 10:15:34;;;;;;;;;;;;;;;37.62;11.15;99537.22;1693284;83;21215;-70
2022/09/07 10:17:59;;;;;;;;;;;;;;;37.36;11.47;99538.15;1693056;83;20183;-68
2022/09/07 10:20:35;;;;;;;;;;;;;;;36.69;11.54;99534.95;1694781;83;20158;-67
2022/09/07 10:23:02;;;;;;;;;;;;;;;36.35;11.89;99536.05;1656879;85;20157;-68
2022/09/07 10:25:43;;;;;;;;;;;;;;;37.01;11.58;99525.84;1657830;85;20138;-70
2022/09/07 10:28:13;;;;;;;;;;;;;;;37.76;11.04;99518.83;1654977;85;21801;-69
2022/09/07 10:31:11;;;;;;;;;;;;;;;38.35;10.93;99516.91;1654698;85;20094;-70
2022/09/07 10:33:53;;;;;;;;;;;;;;;38.86;10.74;99514.59;1656476;85;20106;-71
2022/09/07 10:36:29;;;;;;;;;;;;;;;39.04;10.34;99510.88;1653059;85;20274;-70
2022/09/07 10:39:14;;;;;;;;;;;;;;;38.44;10.50;99507.25;1659790;86;20476;-69
2022/09/07 10:41:44;;;;;;;;;;;;;;;38.57;10.78;99501.05;1655422;85;22086;-68
2022/09/07 10:44:17;;;;;;;;;;;;;;;39.55;10.48;99496.48;1659620;86;20090;-68
2022/09/07 10:46:51;;;;;;;;;;;;;;;40.09;9.76;99490.41;1643236;86;20513;-69
2022/09/07 10:49:34;;;;;;;;;;;;;;;40.02;9.79;99491.02;1640677;86;20129;-67
2022/09/07 10:52:27;;;;;;;;;;;;;;;39.72;9.86;99485.78;1644245;86;20443;-69
2022/09/07 10:54:57;;;;;;;;;;;;;;;39.77;10.07;99484.11;1643370;86;21126;-71
2022/09/07 10:57:37;;;;;;;;;;;;;;;38.77;10.29;99483.38;1643760;86;20232;-69
2022/09/07 11:00:13;;;;;;;;;;;;;;;36.99;11.24;99483.80;1642934;86;20235;-69
2022/09/07 11:03:12;;;;;;;;;;;;;;;35.60;11.81;99483.10;1695940;83;20599;-68
2022/09/07 11:06:01;;;;;;;;;;;;;;;35.22;12.33;99486.68;1691491;83;20106;-69
2022/09/07 11:08:33;;;;;;;;;;;;;;;33.97;13.31;99478.73;1689047;84;20613;-68
2022/09/07 11:11:15;;;;;;;;;;;;;;;32.91;14.21;99485.94;1692012;83;20137;-70
2022/09/07 11:13:42;;;;;;;;;;;;;;;32.07;14.90;99486.98;1692664;83;20155;-71
2022/09/07 11:16:17;;;;;;;;;;;;;;;31.18;15.35;99486.06;1693399;83;20178;-70
2022/09/07 11:18:52;;;;;;;;;;;;;;;30.54;15.94;99483.40;1693565;83;20236;-68
2022/09/07 11:21:21;;;;;;;;;;;;;;;29.76;16.88;99481.82;1690428;83;21133;-68
2022/09/07 11:24:01;;;;;;;;;;;;;;;29.03;17.53;99483.53;1693640;83;20134;-69
2022/09/07 11:26:39;;;;;;;;;;;;;;;28.30;18.17;99484.73;1696433;83;20119;-70
2022/09/07 11:29:13;;;;;;;;;;;;;;;28.06;18.60;99482.72;1688809;83;20175;-69
2022/09/07 11:31:48;;;;;;;;;;;;;;;27.90;18.80;99470.77;1690607;83;20086;-68
2022/09/07 11:34:27;;;;;;;;;;;;;;;27.74;18.95;99468.67;1690529;84;21167;-68
2022/09/07 11:37:11;;;;;;;;;;;;;;;27.46;18.98;99470.20;1689877;83;20111;-68
2022/09/07 11:39:43;;;;;;;;;;;;;;;27.11;19.42;99473.05;1658439;85;20087;-68
2022/09/07 11:42:28;;;;;;;;;;;;;;;26.56;20.13;99463.04;1639360;86;20447;-67
2022/09/07 11:44:58;;;;;;;;;;;;;;;26.04;20.61;99459.73;1638482;86;20125;-68
2022/09/07 11:47:39;;;;;;;;;;;;;;;25.59;21.52;99460.46;1691470;83;21126;-68
2022/09/07 11:50:15;;;;;;;;;;;;;;;25.33;21.57;99457.34;1692053;83;20297;-68
2022/09/07 11:52:43;;;;;;;;;;;;;;;25.16;21.98;99469.25;1690268;83;20265;-69
2022/09/07 11:55:12;;;;;;;;;;;;;;;25.08;22.15;99463.52;1688560;83;20707;-70
2022/09/07 11:58:17;;;;;;;;;;;;;;;24.97;22.26;99461.81;1689082;83;20096;-70
2022/09/07 12:00:54;;;;;;;;;;;;;;;24.74;22.27;99467.63;1693270;83;21156;-69
2022/09/07 12:03:42;;;;;;;;;;;;;;;24.28;22.77;99465.09;1687087;83;20162;-68
2022/09/07 12:06:35;;;;;;;;;;;;;;;24.11;23.27;99460.34;1678571;84;20106;-68
2022/09/07 12:09:08;;;;;;;;;;;;;;;23.93;23.67;99450.64;1677331;85;20131;-68
2022/09/07 12:11:56;;;;;;;;;;;;;;;23.90;23.98;99448.44;1680847;84;20262;-68
2022/09/07 12:14:26;;;;;;;;;;;;;;;23.97;23.82;99446.33;1676620;84;21159;-68
2022/09/07 12:17:13;;;;;;;;;;;;;;;24.01;24.01;99437.95;1679733;84;20185;-68
2022/09/07 12:19:39;;;;;;;;;;;;;;;24.00;24.08;99433.59;1680029;84;20139;-67
2022/09/07 12:22:09;;;;;;;;;;;;;;;23.98;24.38;99435.19;1680097;84;20144;-68
2022/09/07 12:24:39;;;;;;;;;;;;;;;23.92;24.18;99427.27;1678009;84;20165;-68
2022/09/07 12:27:11;;;;;;;;;;;;;;;23.73;24.30;99430.06;1676475;84;21160;-68
2022/09/07 12:29:38;;;;;;;;;;;;;;;23.64;24.98;99426.18;1655743;84;20160;-68
2022/09/07 12:32:06;;;;;;;;;;;;;;;23.55;25.16;99422.27;1681235;84;20159;-67
2022/09/07 12:34:37;;;;;;;;;;;;;;;23.50;25.44;99424.93;1653615;84;20159;-70
2022/09/07 12:37:10;;;;;;;;;;;;;;;23.44;25.45;99420.55;1679256;84;20115;-67
2022/09/07 12:39:38;;;;;;;;;;;;;;;23.44;25.50;99426.77;1680828;84;21366;-70
2022/09/07 12:42:08;;;;;;;;;;;;;;;23.43;25.13;99422.43;1683417;84;20150;-70
2022/09/07 12:44:35;;;;;;;;;;;;;;;23.41;24.96;99423.77;1680713;84;20206;-68
2022/09/07 12:47:04;;;;;;;;;;;;;;;23.33;24.89;99417.66;1681179;84;20644;-69
2022/09/07 12:49:46;;;;;;;;;;;;;;;23.26;25.03;99414.33;1676090;84;20226;-69
2022/09/07 12:52:16;;;;;;;;;;;;;;;23.19;25.44;99419.14;1679931;84;21946;-71
2022/09/07 12:54:49;;;;;;;;;;;;;;;22.92;25.52;99416.05;1681694;84;20175;-70
2022/09/07 12:57:25;;;;;;;;;;;;;;;22.77;25.66;99407.20;1656936;84;20216;-71
2022/09/07 13:00:10;;;;;;;;;;;;;;;22.73;25.72;99411.49;1654248;84;20707;-70
2022/09/07 13:02:56;;;;;;;;;;;;;;;22.70;26.21;99414.17;1639899;86;20120;-70
2022/09/07 13:05:58;;;;;;;;;;;;;;;22.68;26.15;99412.78;1640515;86;21173;-69
2022/09/07 13:09:00;;;;;;;;;;;;;;;22.63;26.12;99413.50;1692759;83;20178;-69
2022/09/07 13:11:34;;;;;;;;;;;;;;;22.47;26.01;99408.10;1692820;83;20174;-68
2022/09/07 13:14:07;;;;;;;;;;;;;;;22.34;25.98;99401.14;1690574;83;20118;-68
2022/09/07 13:16:36;;;;;;;;;;;;;;;22.24;26.17;99404.23;1691308;83;20229;-67
2022/09/07 13:19:03;;;;;;;;;;;;;;;22.17;26.02;99399.48;1691409;83;21414;-67